createdAt,value
2022-12-18T00:00:02.536Z,77.27
2022-12-18T00:02:30.129Z,69.33
2022-12-18T00:05:00.241Z,74.97
2022-12-18T00:07:29.210Z,78.17
2022-12-18T00:09:56.883Z,78.73
2022-12-18T00:12:24.488Z,89.93
2022-12-18T00:14:52.044Z,81.43
2022-12-18T00:17:19.637Z,79.73
2022-12-18T00:19:47.207Z,75.40
2022-12-18T00:22:14.707Z,78.13
2022-12-18T00:24:43.606Z,79.63
2022-12-18T00:27:11.530Z,75.00
2022-12-18T00:29:41.910Z,79.90
2022-12-18T00:32:20.045Z,77.50
2022-12-18T00:34:47.570Z,79.33
2022-12-18T00:37:19.876Z,73.33
2022-12-18T00:39:49.823Z,90.30
2022-12-18T00:42:34.837Z,81.33
2022-12-18T00:45:04.459Z,77.13
2022-12-18T00:47:35.288Z,71.80
2022-12-18T00:50:02.809Z,86.23
2022-12-18T00:52:30.357Z,75.77
2022-12-18T00:55:04.491Z,82.23
2022-12-18T00:57:33.709Z,74.63
2022-12-18T01:00:01.254Z,87.00
2022-12-18T01:02:28.956Z,65.00
2022-12-18T01:04:56.732Z,74.13
2022-12-18T01:07:24.231Z,71.90
2022-12-18T01:09:51.776Z,61.67
2022-12-18T01:12:20.816Z,61.17
2022-12-18T01:14:48.336Z,55.90
2022-12-18T01:17:15.830Z,75.37
2022-12-18T01:19:43.379Z,68.00
2022-12-18T01:22:10.897Z,77.73
2022-12-18T01:24:38.456Z,70.37
2022-12-18T01:27:06.023Z,69.60
2022-12-18T01:29:34.898Z,57.50
2022-12-18T01:32:02.500Z,63.13
2022-12-18T01:34:29.950Z,63.63
2022-12-18T01:36:57.570Z,67.17
2022-12-18T01:39:25.056Z,66.10
2022-12-18T01:42:07.583Z,68.63
2022-12-18T01:45:05.722Z,66.53
2022-12-18T01:47:36.835Z,65.40
2022-12-18T01:50:06.950Z,71.40
2022-12-18T01:52:34.996Z,73.23
2022-12-18T01:55:04.085Z,64.63
2022-12-18T01:57:31.637Z,78.07
2022-12-18T02:00:01.804Z,68.83
2022-12-18T02:02:32.530Z,66.20
2022-12-18T02:05:02.090Z,72.10
2022-12-18T02:07:34.688Z,70.87
2022-12-18T02:10:04.961Z,64.87
2022-12-18T02:12:37.049Z,68.57
2022-12-18T02:15:08.198Z,78.70
2022-12-18T02:17:39.061Z,68.77
2022-12-18T02:20:11.354Z,67.53
2022-12-18T02:22:44.732Z,65.20
2022-12-18T02:25:20.916Z,70.77
2022-12-18T02:27:51.596Z,67.67
2022-12-18T02:30:20.076Z,65.10
2022-12-18T02:32:49.283Z,62.67
2022-12-18T02:35:18.429Z,76.23
2022-12-18T02:37:47.285Z,64.67
2022-12-18T02:40:16.604Z,65.13
2022-12-18T02:42:44.200Z,69.87
2022-12-18T02:45:13.383Z,60.90
2022-12-18T02:47:42.484Z,64.03
2022-12-18T02:50:15.719Z,61.67
2022-12-18T02:52:46.420Z,72.30
2022-12-18T02:55:21.214Z,60.47
2022-12-18T02:57:51.156Z,63.83
2022-12-18T03:00:21.457Z,60.50
2022-12-18T03:02:51.964Z,64.77
2022-12-18T03:05:21.597Z,65.43
2022-12-18T03:07:51.032Z,63.77
2022-12-18T03:10:21.881Z,66.60
2022-12-18T03:12:52.390Z,65.73
2022-12-18T03:15:23.182Z,62.77
2022-12-18T03:17:55.125Z,62.67
2022-12-18T03:20:23.805Z,51.73
2022-12-18T03:22:54.374Z,55.40
2022-12-18T03:25:22.431Z,64.83
2022-12-18T03:27:51.609Z,43.47
2022-12-18T03:30:21.201Z,61.67
2022-12-18T03:32:50.067Z,59.07
2022-12-18T03:35:21.173Z,66.73
2022-12-18T03:37:48.670Z,55.57
2022-12-18T03:40:16.329Z,59.23
2022-12-18T03:42:47.831Z,53.10
2022-12-18T03:45:19.578Z,61.23
2022-12-18T03:47:53.966Z,54.20
2022-12-18T03:50:23.669Z,54.23
2022-12-18T03:52:53.153Z,58.47
2022-12-18T03:55:21.897Z,58.63
2022-12-18T03:57:50.512Z,51.77
2022-12-18T04:00:19.499Z,54.80
2022-12-18T04:02:50.987Z,55.23
2022-12-18T04:05:19.720Z,61.80
2022-12-18T04:07:48.695Z,55.97
2022-12-18T04:10:16.799Z,67.63
2022-12-18T04:12:44.779Z,57.07
2022-12-18T04:15:13.009Z,68.23
2022-12-18T04:17:40.977Z,52.20
2022-12-18T04:20:10.780Z,58.67
2022-12-18T04:22:38.334Z,52.13
2022-12-18T04:25:06.290Z,51.97
2022-12-18T04:27:33.933Z,58.33
2022-12-18T04:30:01.936Z,51.03
2022-12-18T04:32:29.506Z,56.37
2022-12-18T04:34:57.082Z,51.77
2022-12-18T04:37:26.033Z,56.27
2022-12-18T04:39:53.575Z,54.13
2022-12-18T04:42:21.072Z,57.13
2022-12-18T04:44:48.613Z,54.80
2022-12-18T04:47:16.161Z,50.13
2022-12-18T04:49:43.743Z,51.37
2022-12-18T04:52:11.254Z,55.23
2022-12-18T04:54:40.159Z,56.37
2022-12-18T04:57:07.666Z,47.87
2022-12-18T04:59:35.225Z,48.70
2022-12-18T05:02:02.863Z,54.23
2022-12-18T05:04:30.636Z,55.73
2022-12-18T05:06:58.237Z,48.00
2022-12-18T05:09:25.801Z,62.60
2022-12-18T05:11:54.932Z,55.37
2022-12-18T05:14:22.483Z,50.80
2022-12-18T05:16:50.092Z,48.60
2022-12-18T05:19:17.768Z,45.87
2022-12-18T05:21:45.350Z,49.47
2022-12-18T05:24:24.141Z,56.30
2022-12-18T05:26:57.097Z,49.73
2022-12-18T05:29:26.726Z,50.23
2022-12-18T05:31:56.790Z,45.80
2022-12-18T05:34:27.679Z,50.25
2022-12-18T05:37:01.760Z,52.00
2022-12-18T05:39:29.727Z,51.03
2022-12-18T05:42:03.344Z,49.83
2022-12-18T05:44:32.392Z,53.43
2022-12-18T05:47:05.771Z,57.30
2022-12-18T05:49:35.566Z,55.00
2022-12-18T05:52:18.848Z,54.40
2022-12-18T05:54:51.333Z,50.90
2022-12-18T05:57:27.798Z,60.07
2022-12-18T06:00:01.719Z,56.57
2022-12-18T06:02:30.083Z,49.77
2022-12-18T06:05:00.320Z,45.63
2022-12-18T06:07:30.537Z,43.13
2022-12-18T06:10:01.322Z,47.83
2022-12-18T06:12:35.858Z,56.03
2022-12-18T06:15:08.895Z,45.07
2022-12-18T06:17:37.218Z,49.37
2022-12-18T06:20:08.279Z,47.83
2022-12-18T06:22:40.163Z,58.10
2022-12-18T06:25:11.361Z,57.83
2022-12-18T06:27:41.230Z,46.63
2022-12-18T06:30:12.124Z,55.30
2022-12-18T06:32:47.744Z,77.43
2022-12-18T06:35:17.101Z,66.30
2022-12-18T06:37:46.657Z,66.73
2022-12-18T06:40:20.462Z,56.57
2022-12-18T06:42:48.559Z,56.10
2022-12-18T06:45:21.230Z,56.07
2022-12-18T06:47:50.774Z,52.00
2022-12-18T06:50:24.410Z,44.00
2022-12-18T06:52:53.959Z,54.23
2022-12-18T06:55:21.873Z,64.33
2022-12-18T06:57:49.358Z,60.60
2022-12-18T07:00:20.985Z,65.17
2022-12-18T07:03:03.863Z,56.73
2022-12-18T07:05:45.924Z,63.90
2022-12-18T07:08:22.746Z,57.60
2022-12-18T07:10:56.064Z,59.23
2022-12-18T07:13:24.037Z,63.07
2022-12-18T07:15:53.012Z,49.47
2022-12-18T07:18:24.485Z,52.83
2022-12-18T07:20:51.995Z,62.87
2022-12-18T07:23:19.468Z,56.93
2022-12-18T07:25:56.188Z,52.00
2022-12-18T07:28:24.751Z,57.77
2022-12-18T07:30:56.629Z,54.17
2022-12-18T07:33:24.531Z,57.90
2022-12-18T07:35:52.121Z,55.20
2022-12-18T07:38:19.650Z,60.57
2022-12-18T07:40:48.188Z,64.03
2022-12-18T07:43:15.578Z,55.67
2022-12-18T07:45:44.030Z,60.27
2022-12-18T07:48:13.019Z,64.83
2022-12-18T07:50:40.684Z,56.17
2022-12-18T07:53:11.323Z,63.90
2022-12-18T07:56:05.481Z,63.60
2022-12-18T07:58:30.328Z,68.80
2022-12-18T08:01:04.348Z,64.43
2022-12-18T08:06:33.846Z,64.97
2022-12-18T08:09:01.326Z,68.93
2022-12-18T08:11:29.669Z,59.10
2022-12-18T08:13:57.603Z,66.83
2022-12-18T08:16:40.672Z,73.43
2022-12-18T08:19:12.768Z,68.47
2022-12-18T08:21:42.995Z,85.10
2022-12-18T08:24:11.696Z,84.07
2022-12-18T08:27:06.809Z,81.50
2022-12-18T08:29:34.768Z,75.27
2022-12-18T08:32:02.533Z,72.17
2022-12-18T08:34:39.177Z,77.03
2022-12-18T08:37:06.737Z,68.77
2022-12-18T08:39:39.439Z,69.67
2022-12-18T08:42:24.684Z,71.10
2022-12-18T08:44:53.109Z,82.20
2022-12-18T08:47:26.207Z,74.07
2022-12-18T08:50:09.485Z,74.77
2022-12-18T08:52:47.149Z,78.57
2022-12-18T08:55:29.112Z,82.73
2022-12-18T08:58:01.414Z,70.70
2022-12-18T09:00:38.324Z,76.90
2022-12-18T09:03:05.903Z,76.10
2022-12-18T09:05:34.890Z,67.73
2022-12-18T09:08:08.472Z,73.07
2022-12-18T09:10:43.557Z,70.80
2022-12-18T09:13:11.567Z,72.07
2022-12-18T09:15:43.037Z,69.37
2022-12-18T09:18:10.820Z,74.93
2022-12-18T09:20:45.284Z,73.03
2022-12-18T09:23:15.022Z,71.90
2022-12-18T09:25:46.182Z,68.33
2022-12-18T09:28:17.030Z,76.03
2022-12-18T09:30:45.655Z,77.30
2022-12-18T09:33:17.067Z,72.83
2022-12-18T09:35:56.424Z,74.90
2022-12-18T09:38:24.467Z,71.67
2022-12-18T09:41:07.907Z,68.80
2022-12-18T09:43:38.454Z,68.63
2022-12-18T09:46:12.590Z,64.87
2022-12-18T09:48:45.365Z,72.90
2022-12-18T09:51:18.753Z,65.07
2022-12-18T09:53:51.236Z,71.67
2022-12-18T09:56:23.087Z,67.83
2022-12-18T09:58:56.301Z,75.97
2022-12-18T10:01:40.228Z,73.97
2022-12-18T10:04:10.915Z,69.67
2022-12-18T10:06:41.491Z,71.07
2022-12-18T10:09:15.820Z,70.47
2022-12-18T10:11:52.155Z,62.83
2022-12-18T10:14:26.997Z,67.07
2022-12-18T10:17:01.661Z,63.10
2022-12-18T10:19:50.007Z,56.13
2022-12-18T10:22:24.868Z,67.27
2022-12-18T10:24:56.689Z,64.80
2022-12-18T10:27:29.767Z,65.67
2022-12-18T10:29:57.927Z,57.63
2022-12-18T10:32:28.928Z,56.73
2022-12-18T10:35:00.515Z,62.80
2022-12-18T10:37:31.519Z,56.93
2022-12-18T10:40:10.964Z,63.90
2022-12-18T10:42:38.564Z,50.13
2022-12-18T10:45:09.912Z,49.63
2022-12-18T10:47:39.111Z,54.00
2022-12-18T10:50:09.628Z,53.73
2022-12-18T10:52:43.463Z,60.37
2022-12-18T10:55:18.481Z,61.53
2022-12-18T10:57:46.177Z,48.43
2022-12-18T11:00:31.274Z,49.57
2022-12-18T11:02:59.566Z,52.03
2022-12-18T11:05:31.824Z,47.30
2022-12-18T11:08:01.214Z,52.37
2022-12-18T11:10:32.579Z,50.47
2022-12-18T11:13:11.260Z,52.63
2022-12-18T11:15:39.249Z,48.07
2022-12-18T11:18:07.095Z,47.23
2022-12-18T11:20:36.367Z,51.50
2022-12-18T11:23:12.455Z,46.60
2022-12-18T11:25:41.762Z,63.77
2022-12-18T11:28:27.598Z,58.17
2022-12-18T11:31:11.784Z,62.27
2022-12-18T11:36:33.450Z,47.13
2022-12-18T11:39:25.366Z,50.33
2022-12-18T11:42:23.958Z,62.10
2022-12-18T11:44:54.789Z,47.97
2022-12-18T11:47:27.366Z,48.87
2022-12-18T11:49:55.749Z,46.10
2022-12-18T11:52:26.089Z,49.30
2022-12-18T11:54:55.774Z,40.70
2022-12-18T11:57:35.212Z,44.90
2022-12-18T12:00:05.754Z,47.77
2022-12-18T12:02:41.567Z,51.40
2022-12-18T12:05:23.293Z,47.03
2022-12-18T12:07:56.963Z,43.63
2022-12-18T12:10:37.350Z,44.50
2022-12-18T12:13:12.304Z,44.93
2022-12-18T12:15:43.307Z,43.43
2022-12-18T12:18:22.141Z,42.93
2022-12-18T12:20:53.497Z,43.73
2022-12-18T12:23:27.652Z,46.00
2022-12-18T12:25:59.620Z,43.57
2022-12-18T12:28:36.307Z,43.27
2022-12-18T12:31:07.964Z,43.60
2022-12-18T12:33:41.399Z,43.03
2022-12-18T12:36:12.661Z,46.50
2022-12-18T12:38:48.344Z,46.70
2022-12-18T12:41:37.667Z,47.67
2022-12-18T12:44:07.159Z,40.23
2022-12-18T12:46:38.961Z,43.87
2022-12-18T12:49:11.802Z,48.17
2022-12-18T12:51:42.458Z,45.97
2022-12-18T12:54:15.103Z,43.47
2022-12-18T12:56:46.769Z,43.70
2022-12-18T12:59:19.300Z,49.90
2022-12-18T13:01:52.134Z,41.33
2022-12-18T13:07:59.943Z,50.80
2022-12-18T13:10:37.281Z,46.50
2022-12-18T13:16:11.702Z,45.30
2022-12-18T13:18:41.337Z,53.60
2022-12-18T13:21:20.701Z,45.63
2022-12-18T13:23:49.638Z,56.03
2022-12-18T13:26:43.592Z,51.00
2022-12-18T13:29:36.885Z,42.93
2022-12-18T13:32:04.718Z,42.73
2022-12-18T13:34:39.488Z,43.50
2022-12-18T13:37:25.458Z,47.63
2022-12-18T13:39:53.325Z,51.53
2022-12-18T13:45:33.774Z,50.70
2022-12-18T13:48:01.439Z,49.67
2022-12-18T13:50:35.852Z,54.03
2022-12-18T13:53:05.259Z,47.10
2022-12-18T13:55:34.513Z,46.50
2022-12-18T13:58:05.959Z,48.63
2022-12-18T14:00:34.943Z,48.53
2022-12-18T14:03:02.926Z,53.67
2022-12-18T14:05:31.897Z,49.60
2022-12-18T14:08:02.887Z,44.60
2022-12-18T14:10:49.048Z,47.23
2022-12-18T14:13:20.688Z,50.33
2022-12-18T14:15:50.937Z,48.17
2022-12-18T14:18:21.898Z,50.53
2022-12-18T14:20:52.891Z,44.13
2022-12-18T14:23:28.943Z,52.33
2022-12-18T14:25:59.651Z,49.33
2022-12-18T14:28:32.130Z,38.60
2022-12-18T14:31:01.255Z,48.77
2022-12-18T14:33:29.751Z,50.47
2022-12-18T14:35:59.556Z,50.83
2022-12-18T14:38:29.460Z,44.87
2022-12-18T14:41:00.720Z,59.30
2022-12-18T14:43:29.266Z,44.73
2022-12-18T14:45:57.356Z,49.20
2022-12-18T14:48:34.719Z,46.77
2022-12-18T14:51:03.701Z,43.37
2022-12-18T14:53:35.700Z,40.87
2022-12-18T14:56:03.738Z,43.33
2022-12-18T14:58:31.639Z,44.90
2022-12-18T15:00:59.516Z,50.77
2022-12-18T15:03:28.519Z,52.33
2022-12-18T15:05:56.210Z,49.77
2022-12-18T15:08:30.954Z,49.27
2022-12-18T15:10:58.579Z,50.27
2022-12-18T15:13:26.906Z,47.67
2022-12-18T15:15:55.125Z,50.40
2022-12-18T15:18:26.465Z,47.17
2022-12-18T15:20:57.025Z,45.00
2022-12-18T15:23:27.315Z,50.97
2022-12-18T15:25:58.453Z,52.27
2022-12-18T15:28:27.302Z,48.30
2022-12-18T15:31:08.929Z,50.00
2022-12-18T15:33:38.650Z,46.33
2022-12-18T15:36:11.149Z,44.63
2022-12-18T15:38:38.660Z,51.57
2022-12-18T15:41:13.999Z,51.47
2022-12-18T15:43:41.492Z,53.30
2022-12-18T15:46:13.127Z,58.90
2022-12-18T15:48:41.297Z,43.97
2022-12-18T15:51:14.061Z,52.43
2022-12-18T15:53:41.934Z,47.83
2022-12-18T15:56:29.751Z,50.43
2022-12-18T15:58:58.094Z,48.77
2022-12-18T16:01:27.553Z,48.80
2022-12-18T16:03:55.532Z,42.03
2022-12-18T16:06:24.977Z,48.57
2022-12-18T16:08:52.500Z,51.63
2022-12-18T16:11:38.969Z,48.53
2022-12-18T16:14:08.195Z,42.03
2022-12-18T16:16:36.197Z,48.13
2022-12-18T16:19:03.973Z,45.40
2022-12-18T16:21:34.175Z,51.87
2022-12-18T16:24:02.665Z,46.20
2022-12-18T16:26:33.283Z,56.03
2022-12-18T16:29:00.797Z,54.80
2022-12-18T16:31:28.557Z,59.73
2022-12-18T16:34:12.219Z,60.00
2022-12-18T16:36:41.350Z,62.23
2022-12-18T16:39:09.320Z,65.97
2022-12-18T16:41:36.987Z,60.60
2022-12-18T16:44:04.649Z,56.03
2022-12-18T16:46:32.448Z,57.47
2022-12-18T16:49:00.591Z,58.10
2022-12-18T16:51:28.393Z,68.70
2022-12-18T16:53:57.847Z,91.80
2022-12-18T16:56:25.425Z,109.30
2022-12-18T16:58:53.521Z,118.93
2022-12-18T17:01:21.544Z,68.73
2022-12-18T17:03:53.220Z,77.13
2022-12-18T17:06:21.205Z,73.70
2022-12-18T17:08:49.024Z,82.63
2022-12-18T17:11:18.074Z,61.70
2022-12-18T17:13:46.223Z,59.50
2022-12-18T17:16:14.064Z,68.40
2022-12-18T17:18:41.649Z,81.17
2022-12-18T17:21:11.293Z,80.97
2022-12-18T17:23:46.559Z,78.90
2022-12-18T17:26:14.551Z,69.33
2022-12-18T17:28:43.415Z,65.70
2022-12-18T17:31:14.641Z,60.93
2022-12-18T17:33:51.232Z,60.00
2022-12-18T17:36:18.900Z,58.70
2022-12-18T17:38:51.614Z,60.10
2022-12-18T17:41:19.396Z,56.27
2022-12-18T17:43:53.035Z,59.77
2022-12-18T17:46:21.085Z,60.03
2022-12-18T17:48:48.962Z,65.47
2022-12-18T17:51:17.246Z,65.93
2022-12-18T17:53:45.186Z,58.73
2022-12-18T17:56:13.868Z,64.77
2022-12-18T17:58:42.153Z,63.23
2022-12-18T18:01:12.701Z,63.43
2022-12-18T18:03:42.644Z,67.00
2022-12-18T18:06:10.716Z,64.70
2022-12-18T18:08:38.569Z,59.73
2022-12-18T18:11:20.554Z,58.80
2022-12-18T18:14:04.176Z,74.30
2022-12-18T18:16:34.734Z,78.40
2022-12-18T18:19:03.262Z,65.17
2022-12-18T18:21:30.989Z,70.67
2022-12-18T18:24:00.597Z,66.87
2022-12-18T18:26:29.426Z,66.07
2022-12-18T18:28:57.868Z,65.20
2022-12-18T18:31:26.084Z,66.83
2022-12-18T18:33:55.385Z,64.37
2022-12-18T18:36:22.950Z,56.27
2022-12-18T18:38:51.348Z,57.10
2022-12-18T18:41:19.616Z,68.37
2022-12-18T18:43:47.155Z,68.23
2022-12-18T18:46:17.592Z,71.83
2022-12-18T18:48:45.686Z,67.47
2022-12-18T18:51:21.609Z,55.67
2022-12-18T18:53:50.052Z,62.70
2022-12-18T18:59:06.264Z,68.27
2022-12-18T19:01:34.038Z,63.67
2022-12-18T19:04:04.996Z,65.33
2022-12-18T19:06:34.151Z,59.27
2022-12-18T19:09:02.882Z,61.97
2022-12-18T19:11:48.307Z,63.57
2022-12-18T19:14:16.455Z,63.73
2022-12-18T19:16:45.539Z,60.10
2022-12-18T19:19:14.034Z,62.43
2022-12-18T19:21:43.177Z,59.67
2022-12-18T19:24:10.746Z,60.37
2022-12-18T19:26:38.626Z,52.17
2022-12-18T19:29:06.925Z,60.87
2022-12-18T19:31:36.323Z,58.23
2022-12-18T19:34:05.026Z,60.43
2022-12-18T19:36:33.321Z,73.47
2022-12-18T19:39:02.891Z,66.13
2022-12-18T19:41:31.192Z,59.43
2022-12-18T19:44:08.262Z,50.80
2022-12-18T19:46:37.128Z,56.37
2022-12-18T19:49:09.838Z,63.60
2022-12-18T19:51:37.712Z,62.17
2022-12-18T19:54:06.727Z,69.87
2022-12-18T19:56:35.514Z,63.93
2022-12-18T19:59:03.366Z,62.27
2022-12-18T20:01:31.635Z,61.33
2022-12-18T20:04:00.451Z,59.13
2022-12-18T20:06:30.517Z,62.27
2022-12-18T20:09:00.725Z,66.47
2022-12-18T20:11:30.166Z,61.27
2022-12-18T20:13:57.656Z,58.90
2022-12-18T20:16:25.218Z,50.97
2022-12-18T20:18:56.098Z,62.33
2022-12-18T20:21:23.761Z,59.87
2022-12-18T20:23:51.396Z,72.17
2022-12-18T20:26:19.386Z,83.60
2022-12-18T20:28:48.720Z,80.00
2022-12-18T20:31:16.320Z,69.97
2022-12-18T20:33:47.506Z,66.57
2022-12-18T20:36:21.343Z,65.43
2022-12-18T20:38:52.883Z,69.33
2022-12-18T20:41:24.644Z,65.80
2022-12-18T20:43:53.699Z,78.97
2022-12-18T20:46:21.496Z,73.23
2022-12-18T20:48:49.340Z,75.27
2022-12-18T20:51:17.724Z,78.17
2022-12-18T20:53:46.344Z,68.50
2022-12-18T20:56:17.834Z,65.63
2022-12-18T20:58:49.119Z,70.97
2022-12-18T21:01:19.221Z,64.87
2022-12-18T21:03:47.187Z,67.97
2022-12-18T21:06:15.385Z,60.47
2022-12-18T21:08:43.273Z,68.83
2022-12-18T21:11:35.449Z,61.70
2022-12-18T21:14:03.094Z,59.23
2022-12-18T21:16:32.142Z,61.53
2022-12-18T21:18:59.880Z,55.80
2022-12-18T21:21:27.724Z,54.63
2022-12-18T21:23:55.780Z,55.13
2022-12-18T21:26:24.434Z,57.07
2022-12-18T21:28:56.147Z,56.87
2022-12-18T21:31:24.317Z,66.70
2022-12-18T21:33:56.642Z,59.73
2022-12-18T21:36:29.954Z,55.30
2022-12-18T21:38:57.664Z,62.70
2022-12-18T21:41:46.128Z,59.83
2022-12-18T21:44:14.531Z,56.23
2022-12-18T21:46:43.116Z,55.47
2022-12-18T21:49:14.423Z,51.97
2022-12-18T21:51:42.299Z,51.13
2022-12-18T21:54:09.886Z,58.50
2022-12-18T21:56:46.978Z,58.77
2022-12-18T21:59:15.536Z,55.03
2022-12-18T22:01:43.630Z,53.57
2022-12-18T22:04:15.958Z,58.67
2022-12-18T22:06:43.918Z,52.33
2022-12-18T22:09:12.501Z,57.17
2022-12-18T22:11:40.436Z,55.80
2022-12-18T22:14:08.513Z,52.57
2022-12-18T22:16:36.256Z,50.00
2022-12-18T22:19:05.218Z,54.73
2022-12-18T22:21:35.118Z,56.63
2022-12-18T22:24:03.529Z,60.00
2022-12-18T22:26:37.917Z,54.47
2022-12-18T22:29:24.596Z,50.20
2022-12-18T22:31:52.369Z,49.77
2022-12-18T22:34:23.061Z,54.20
2022-12-18T22:36:52.278Z,56.70
2022-12-18T22:39:20.440Z,60.27
2022-12-18T22:41:49.238Z,60.03
2022-12-18T22:44:18.096Z,58.13
2022-12-18T22:46:47.017Z,52.23
2022-12-18T22:49:19.547Z,56.33
2022-12-18T22:51:47.431Z,51.80
2022-12-18T22:54:16.768Z,49.83
2022-12-18T22:56:44.348Z,47.93
2022-12-18T22:59:16.088Z,55.30
2022-12-18T23:01:43.670Z,54.13
2022-12-18T23:04:14.031Z,52.33
2022-12-18T23:06:41.854Z,54.83
2022-12-18T23:09:14.550Z,52.40
2022-12-18T23:11:43.650Z,55.10
2022-12-18T23:14:11.258Z,50.30
2022-12-18T23:16:38.772Z,57.30
2022-12-18T23:19:06.481Z,49.83
2022-12-18T23:21:33.934Z,54.07
2022-12-18T23:24:01.621Z,54.67
2022-12-18T23:26:29.203Z,57.03
2022-12-18T23:28:58.135Z,54.63
2022-12-18T23:31:26.473Z,51.13
2022-12-18T23:33:54.618Z,49.17
2022-12-18T23:36:22.800Z,55.27
2022-12-18T23:38:51.252Z,53.90
2022-12-18T23:41:19.494Z,46.67
2022-12-18T23:43:47.161Z,51.03
2022-12-18T23:46:20.201Z,55.33
2022-12-18T23:48:47.803Z,45.13
2022-12-18T23:51:16.232Z,44.80
2022-12-18T23:53:44.319Z,54.97
2022-12-18T23:56:12.375Z,47.50
2022-12-18T23:58:40.341Z,44.40
